createdAt,value
2022-08-12T04:02:55.537Z,47.28
2022-08-12T04:05:57.996Z,47.28
2022-08-12T04:09:00.167Z,48.33
2022-08-12T04:12:23.044Z,48.40
2022-08-12T04:15:31.493Z,48.63
2022-08-12T04:18:34.100Z,48.51
2022-08-12T04:21:37.975Z,48.32
2022-08-12T04:25:01.582Z,48.51
2022-08-12T04:28:13.211Z,47.67
2022-08-12T04:31:16.146Z,47.61
2022-08-12T04:34:18.941Z,47.93
2022-08-12T04:37:21.490Z,47.75
2022-08-12T04:40:28.763Z,47.72
2022-08-12T04:43:59.944Z,48.26
2022-08-12T04:46:54.486Z,47.59
2022-08-12T04:49:56.827Z,47.63
2022-08-12T04:53:00.665Z,47.75
2022-08-12T04:56:04.589Z,47.86
2022-08-12T04:59:07.615Z,47.54
2022-08-12T05:02:10.078Z,47.23
2022-08-12T05:05:22.788Z,47.55
2022-08-12T05:08:26.461Z,47.31
2022-08-12T05:11:28.781Z,47.27
2022-08-12T05:14:37.034Z,47.83
2022-08-12T05:17:41.109Z,47.35
2022-08-12T05:20:44.629Z,47.44
2022-08-12T05:23:46.802Z,47.69
2022-08-12T05:26:49.226Z,46.97
2022-08-12T05:30:07.086Z,46.65
2022-08-12T05:33:15.697Z,47.05
2022-08-12T05:36:19.901Z,46.16
2022-08-12T05:39:22.252Z,47.16
2022-08-12T05:42:32.556Z,45.85
2022-08-12T05:45:41.541Z,46.05
2022-08-12T05:48:47.219Z,46.00
2022-08-12T05:51:49.610Z,45.79
2022-08-12T05:54:57.593Z,47.22
2022-08-12T05:58:02.883Z,45.93
2022-08-12T06:02:11.378Z,45.47
2022-08-12T06:04:27.439Z,45.89
2022-08-12T06:07:42.800Z,45.22
2022-08-12T06:10:52.085Z,45.52
2022-08-12T06:13:55.606Z,44.79
2022-08-12T06:16:59.901Z,46.07
2022-08-12T06:20:26.237Z,46.15
2022-08-12T06:23:28.582Z,46.27
2022-08-12T06:26:30.728Z,45.35
2022-08-12T06:30:09.134Z,43.96
2022-08-12T06:33:11.266Z,44.00
2022-08-12T06:36:21.194Z,44.07
2022-08-12T06:39:24.444Z,44.11
2022-08-12T06:42:52.725Z,43.56
2022-08-12T06:45:58.050Z,43.53
2022-08-12T06:49:00.549Z,43.24
2022-08-12T06:52:11.807Z,45.00
2022-08-12T06:55:20.902Z,44.03
2022-08-12T06:58:25.082Z,43.83
2022-08-12T07:01:27.557Z,43.52
2022-08-12T07:04:38.410Z,43.88
2022-08-12T07:07:41.765Z,43.73
2022-08-12T07:10:58.935Z,43.74
2022-08-12T07:14:12.325Z,43.28
2022-08-12T07:17:15.449Z,42.81
2022-08-12T07:20:42.638Z,42.31
2022-08-12T07:23:41.742Z,41.69
2022-08-12T07:26:44.650Z,42.14
2022-08-12T07:29:58.219Z,41.80
2022-08-12T07:33:08.914Z,41.66
2022-08-12T07:36:13.978Z,41.50
2022-08-12T07:39:17.005Z,42.08
2022-08-12T07:42:19.135Z,42.11
2022-08-12T07:45:22.025Z,42.67
2022-08-12T07:48:24.615Z,42.17
2022-08-12T07:51:28.345Z,41.45
2022-08-12T07:54:30.415Z,41.54
2022-08-12T07:57:33.217Z,41.72
2022-08-12T08:00:37.529Z,42.04
2022-08-12T08:04:01.393Z,42.10
2022-08-12T08:07:03.649Z,42.96
2022-08-12T08:10:10.943Z,42.70
2022-08-12T08:13:13.628Z,41.67
2022-08-12T08:16:16.069Z,42.91
2022-08-12T08:19:23.829Z,41.07
2022-08-12T08:22:41.849Z,42.33
2022-08-12T08:25:45.430Z,42.67
2022-08-12T08:28:48.178Z,41.70
2022-08-12T08:31:54.340Z,41.70
2022-08-12T08:34:56.666Z,41.81
2022-08-12T08:38:28.715Z,42.78
2022-08-12T08:42:17.088Z,40.48
2022-08-12T08:45:16.290Z,41.66
2022-08-12T08:48:18.735Z,42.03
2022-08-12T08:51:24.163Z,42.94
2022-08-12T08:54:26.504Z,40.58
2022-08-12T08:57:43.810Z,40.43
2022-08-12T09:00:50.922Z,40.42
2022-08-12T09:05:07.832Z,40.42
2022-08-12T09:07:51.708Z,40.27
2022-08-12T09:10:45.364Z,40.40
2022-08-12T09:14:12.509Z,40.26
2022-08-12T09:20:39.518Z,39.81
2022-08-12T09:24:00.418Z,42.25
2022-08-12T09:27:06.385Z,39.29
2022-08-12T09:30:16.141Z,39.22
2022-08-12T09:34:25.677Z,39.59
2022-08-12T09:36:57.969Z,38.70
2022-08-12T09:40:57.418Z,39.07
2022-08-12T09:43:53.595Z,40.37
2022-08-12T09:47:03.301Z,39.04
2022-08-12T09:50:20.535Z,38.39
2022-08-12T09:53:36.556Z,38.30
2022-08-12T09:57:02.653Z,38.23
2022-08-12T10:00:13.407Z,37.98
2022-08-12T10:03:32.512Z,38.05
2022-08-12T10:06:36.051Z,37.38
2022-08-12T10:09:57.514Z,38.34
2022-08-12T10:13:34.832Z,37.93
2022-08-12T10:16:45.731Z,39.75
2022-08-12T10:19:52.041Z,37.81
2022-08-12T10:22:59.122Z,37.98
2022-08-12T10:26:37.858Z,37.19
2022-08-12T10:30:38.908Z,37.71
2022-08-12T10:33:18.476Z,36.96
2022-08-12T10:36:40.619Z,37.42
2022-08-12T10:40:01.575Z,36.18
2022-08-12T10:43:26.634Z,36.58
2022-08-12T10:46:30.576Z,37.40
2022-08-12T10:50:03.422Z,35.92
2022-08-12T10:52:56.850Z,35.74
2022-08-12T10:56:00.374Z,37.12
2022-08-12T10:59:11.061Z,35.79
2022-08-12T11:04:20.197Z,34.82
2022-08-12T11:07:06.816Z,34.30
2022-08-12T11:09:00.393Z,36.10
2022-08-12T11:12:35.506Z,34.67
2022-08-12T11:16:03.023Z,35.88
2022-08-12T11:18:55.596Z,34.57
2022-08-12T11:22:01.235Z,34.79
2022-08-12T11:25:10.433Z,35.17
2022-08-12T11:28:15.884Z,35.57
2022-08-12T11:31:18.207Z,34.83
2022-08-12T11:34:53.757Z,34.10
2022-08-12T11:37:59.088Z,34.90
2022-08-12T11:41:05.040Z,35.14
2022-08-12T11:44:43.001Z,34.70
2022-08-12T11:47:29.462Z,36.06
2022-08-12T11:50:32.919Z,35.96
2022-08-12T11:53:59.019Z,36.59
2022-08-12T11:57:02.980Z,35.55
2022-08-12T12:03:48.232Z,38.24
2022-08-12T12:06:52.952Z,36.25
2022-08-12T12:09:55.822Z,34.97
2022-08-12T12:12:57.959Z,35.96
2022-08-12T12:16:00.312Z,35.48
2022-08-12T12:19:02.478Z,35.21
2022-08-12T12:22:04.831Z,35.82
2022-08-12T12:25:13.376Z,34.91
2022-08-12T12:28:36.597Z,34.81
2022-08-12T12:32:10.876Z,35.15
2022-08-12T12:35:13.466Z,35.40
2022-08-12T12:38:25.188Z,36.02
2022-08-12T12:42:42.551Z,35.80
2022-08-12T12:44:53.754Z,36.43
2022-08-12T12:47:58.745Z,35.14
2022-08-12T12:51:48.550Z,35.21
2022-08-12T12:54:52.302Z,34.88
2022-08-12T12:58:00.527Z,33.79
2022-08-12T13:01:04.783Z,34.05
2022-08-12T13:04:27.041Z,33.12
2022-08-12T13:07:54.437Z,33.77
2022-08-12T13:10:53.063Z,34.22
2022-08-12T13:14:09.984Z,33.67
2022-08-12T13:17:17.465Z,33.39
2022-08-12T13:20:37.751Z,33.13
2022-08-12T13:23:42.042Z,33.00
2022-08-12T13:26:47.197Z,33.51
2022-08-12T13:29:50.018Z,33.58
2022-08-12T13:32:58.501Z,33.84
2022-08-12T13:36:06.295Z,32.91
2022-08-12T13:39:12.590Z,33.59
2022-08-12T13:42:22.852Z,34.23
2022-08-12T13:45:26.597Z,33.90
2022-08-12T13:48:31.081Z,33.55
2022-08-12T13:51:41.023Z,33.80
2022-08-12T13:54:43.562Z,33.04
2022-08-12T13:57:59.854Z,32.75
2022-08-12T14:01:05.508Z,32.23
2022-08-12T14:04:12.327Z,32.86
2022-08-12T14:07:14.693Z,32.84
2022-08-12T14:10:36.287Z,31.41
2022-08-12T14:14:05.570Z,32.08
2022-08-12T14:17:05.658Z,31.51
2022-08-12T14:20:14.544Z,31.26
2022-08-12T14:24:01.411Z,31.22
2022-08-12T14:26:46.955Z,31.60
2022-08-12T14:30:03.947Z,31.73
2022-08-12T14:33:09.149Z,31.51
2022-08-12T14:36:21.953Z,32.27
2022-08-12T14:39:25.094Z,31.51
2022-08-12T14:42:28.789Z,31.52
